map of ASJ home
ASJ - Airport
Location
City:  Amami, Amami Oshima, Satsunan Islands, Kagoshima, Japan
Name:Amami Airport
ICAO:RJKA
IATA:ASJ

Details
Type:Airport (Aerodrome, Airfield)
Latitude:2825'50"N (28.430633)
Longitude:12942'45"E (129.712542)
Datum:WGS 1984
Elevation:27 ft (8 m)
Variation:5.99W (WMM2015 magnetic declination)
-0.09 annual change
Runways:1
Longest:6560 × 150 ft (1999 × 45.5 m), paved

Time
Time Zone:UTC+9
Local Time:

Weather
METAR:RJKA 150800Z 03006KT 9999 FEW035 SCT045 18/11 Q1024

Related Locations
Nearby:
Farthest:SSBJ: 12436 mi / 20014 km
Bom Jesus [Aeropuerto Bom Jesus], RS, BR

Find:

   beyond  
but within

Other Information
Maps:
NOTAMs:
Links:
Sources:

  
  • flag of Japan
  • flag of Kagoshima
  • flag of Amami
  

Sectional Chart

Flight Planning
at skyvector.com

Satellite Image

Google Maps Satellite view

 

Copyright © 2004-2018 Karl L. Swartz. All rights reserved.
The Great Circle Mapper name and logo are trademarks of the Great Circle Mapper.
All other trademarks mentioned herein belong to their respective owners.
Please see credits for attibutions and further copyright information.

  Follow gcmap on Facebook Follow gcmap on Twitter Follow gcmap on Google+ GCmap on LinkedIn

hCard Microformat

Geo Microformat